Time;durP1;ratioP1;P1;durP2;ratioP2;P2;SDS_P1;SDS_P2;PMS_P1;PMS_P2;Temp;Humidity;BMP_temperature;BMP_pressure;BME280_temperature;BME280_humidity;BME280_pressure;Samples;Min_cycle;Max_cycle;Signal;HPM_P1;HPM_P2
2021/08/25 00:01:01;;;;;;;;;7.25;7.25;;;;;22.99;39.98;101759.44;5058195;28;45356;-50
2021/08/25 00:03:26;;;;;;;;;8.75;8.25;;;;;23.00;40.00;101757.63;5058358;28;45399;-50
2021/08/25 00:05:53;;;;;;;;;5.25;5.25;;;;;23.00;39.68;101752.34;5056895;28;47512;-51
2021/08/25 00:08:18;;;;;;;;;5.00;5.00;;;;;23.00;39.71;101754.97;5058283;28;45744;-47
2021/08/25 00:10:43;;;;;;;;;7.00;7.00;;;;;23.00;40.13;101754.97;5058238;28;45580;-48
2021/08/25 00:13:09;;;;;;;;;6.00;4.75;;;;;23.00;39.96;101760.28;5058390;28;45518;-50
2021/08/25 00:15:39;;;;;;;;;8.75;7.50;;;;;22.99;39.60;101754.13;5057777;28;46112;-47
2021/08/25 00:18:06;;;;;;;;;8.50;6.50;;;;;22.98;39.72;101746.31;5057791;28;45355;-54
2021/08/25 00:20:32;;;;;;;;;10.50;7.50;;;;;22.98;39.76;101748.94;5057935;28;45356;-52
2021/08/25 00:22:58;;;;;;;;;7.75;6.50;;;;;22.98;40.04;101751.59;5058037;28;45654;-49
2021/08/25 00:25:24;;;;;;;;;8.25;7.25;;;;;22.96;40.15;101741.06;5058085;28;46192;-50
2021/08/25 00:27:50;;;;;;;;;9.75;7.00;;;;;22.96;40.12;101733.13;5057929;28;45647;-54
2021/08/25 00:30:15;;;;;;;;;8.25;6.25;;;;;22.96;39.96;101745.53;5057829;28;45232;-50
2021/08/25 00:32:41;;;;;;;;;8.25;7.25;;;;;22.95;40.00;101747.28;5057836;28;45262;-53
2021/08/25 00:35:07;;;;;;;;;8.25;8.25;;;;;22.96;39.89;101740.22;5057472;28;45940;-50
2021/08/25 00:37:32;;;;;;;;;8.00;8.00;;;;;22.94;39.86;101740.28;5057572;28;45252;-51
2021/08/25 00:39:58;;;;;;;;;8.75;8.00;;;;;22.96;39.74;101742.88;5057693;28;45289;-50
2021/08/25 00:42:23;;;;;;;;;6.50;6.25;;;;;22.95;40.01;101725.31;5040080;28;45544;-54
2021/08/25 00:44:48;;;;;;;;;10.00;8.00;;;;;22.95;39.94;101731.44;5057503;28;45295;-56
2021/08/25 00:47:14;;;;;;;;;7.75;7.50;;;;;22.94;40.00;101720.94;5057349;28;46547;-48
2021/08/25 00:49:40;;;;;;;;;6.00;6.00;;;;;22.92;40.00;101714.88;5057630;28;45503;-49
2021/08/25 00:52:06;;;;;;;;;6.00;6.00;;;;;22.94;40.19;101721.78;5057743;28;45395;-55
2021/08/25 00:54:31;;;;;;;;;8.50;7.50;;;;;22.94;39.73;101728.88;5039187;28;46352;-52
2021/08/25 00:56:57;;;;;;;;;5.75;5.75;;;;;22.94;40.05;101729.72;5057222;28;45384;-49
2021/08/25 00:59:23;;;;;;;;;5.50;5.50;;;;;22.93;40.21;101721.88;5057494;28;45526;-47
2021/08/25 01:02:09;;;;;;;;;7.50;7.50;;;;;22.93;39.83;101727.16;5057720;28;45587;-48
2021/08/25 01:04:41;;;;;;;;;7.00;7.00;;;;;22.93;39.93;101716.59;5056262;28;45342;-49
2021/08/25 01:07:08;;;;;;;;;7.50;6.75;;;;;22.92;40.16;101712.22;5056984;28;45399;-55
2021/08/25 01:09:37;;;;;;;;;6.75;6.25;;;;;22.90;39.90;101716.75;5057347;28;45209;-54
2021/08/25 01:12:03;;;;;;;;;9.00;9.00;;;;;22.93;39.94;101711.31;5057416;28;45280;-51
2021/08/25 01:14:28;;;;;;;;;8.00;7.00;;;;;22.91;40.14;101713.16;5056910;28;46322;-55
2021/08/25 01:16:56;;;;;;;;;7.25;7.25;;;;;22.92;39.91;101715.75;5057204;28;45340;-57
2021/08/25 01:19:23;;;;;;;;;9.25;6.00;;;;;22.92;39.93;101706.94;5057073;28;45856;-53
2021/08/25 01:21:49;;;;;;;;;8.00;7.25;;;;;22.92;40.07;101707.81;5057156;28;45637;-54
2021/08/25 01:24:17;;;;;;;;;5.75;5.75;;;;;22.93;40.00;101708.66;5056687;28;46419;-52
2021/08/25 01:26:45;;;;;;;;;6.50;6.00;;;;;22.93;39.88;101711.31;5056723;28;45762;-53
2021/08/25 01:29:21;;;;;;;;;7.00;7.00;;;;;22.92;40.39;101706.94;5057097;28;45394;-54
2021/08/25 01:31:47;;;;;;;;;6.00;6.00;;;;;22.92;40.52;101710.47;5056882;28;45311;-51
2021/08/25 01:34:12;;;;;;;;;7.25;7.00;;;;;22.92;40.07;101704.31;5056440;28;45440;-51
2021/08/25 01:36:38;;;;;;;;;6.00;6.00;;;;;22.91;39.91;101705.22;5056690;28;45546;-48
2021/08/25 01:39:04;;;;;;;;;7.50;6.00;;;;;22.91;40.21;101707.88;5056764;28;45405;-49
2021/08/25 01:41:29;;;;;;;;;6.50;5.75;;;;;22.91;40.00;101705.22;5056811;28;45423;-49
2021/08/25 01:43:59;;;;;;;;;6.25;5.00;;;;;22.92;40.23;101704.31;5056667;28;46374;-50
2021/08/25 01:46:28;;;;;;;;;9.75;7.25;;;;;22.91;40.18;101707.88;5056504;28;45819;-51
2021/08/25 01:48:58;;;;;;;;;7.00;6.00;;;;;22.90;40.20;101699.09;5056908;28;45365;-48
2021/08/25 01:51:28;;;;;;;;;6.25;5.50;;;;;22.91;39.95;101702.59;5057069;28;45339;-51
2021/08/25 01:53:54;;;;;;;;;7.75;6.00;;;;;22.88;40.13;101694.81;5056758;28;45578;-51
2021/08/25 01:56:20;;;;;;;;;8.00;8.00;;;;;22.89;40.38;101700.03;5056458;28;45343;-54
2021/08/25 01:58:45;;;;;;;;;6.75;5.00;;;;;22.87;40.03;101695.78;5056369;28;45356;-52
2021/08/25 02:01:11;;;;;;;;;8.00;8.00;;;;;22.87;40.12;101701.06;5056655;28;45262;-51
2021/08/25 02:03:36;;;;;;;;;7.00;5.00;;;;;22.86;40.26;101694.91;5056244;28;46058;-50
2021/08/25 02:06:02;;;;;;;;;7.00;7.00;;;;;22.87;40.23;101698.41;5056264;28;45304;-57
2021/08/25 02:08:27;;;;;;;;;5.50;5.50;;;;;22.86;40.17;101700.19;5056809;28;45418;-54
2021/08/25 02:10:53;;;;;;;;;6.25;6.00;;;;;22.86;40.18;101694.91;5056589;28;45652;-61
2021/08/25 02:13:18;;;;;;;;;8.00;6.50;;;;;22.84;40.07;101692.34;5056100;28;45259;-53
2021/08/25 02:15:43;;;;;;;;;4.00;4.00;;;;;22.84;40.46;101681.78;5056093;28;45388;-56
2021/08/25 02:18:09;;;;;;;;;6.00;6.00;;;;;22.83;40.37;101682.72;5038075;28;45493;-57
2021/08/25 02:20:34;;;;;;;;;6.25;6.25;;;;;22.85;40.03;101683.50;5038161;28;45265;-52
2021/08/25 02:22:59;;;;;;;;;6.25;6.00;;;;;22.86;40.10;101684.31;5056029;28;45458;-48
2021/08/25 02:25:25;;;;;;;;;5.50;4.50;;;;;22.86;40.33;101684.31;5056123;28;45467;-52
2021/08/25 02:27:50;;;;;;;;;8.25;6.00;;;;;22.85;40.34;101674.69;5056203;28;45425;-55
2021/08/25 02:30:15;;;;;;;;;6.75;6.75;;;;;22.86;40.05;101684.31;5056438;28;45343;-48
2021/08/25 02:32:42;;;;;;;;;6.50;5.75;;;;;22.84;40.39;101681.78;5055820;28;45438;-50
2021/08/25 02:35:11;;;;;;;;;7.00;6.50;;;;;22.84;40.18;101681.78;5056036;28;45819;-49
2021/08/25 02:37:37;;;;;;;;;10.25;8.00;;;;;22.84;40.47;101679.13;5056022;28;45320;-48
2021/08/25 02:40:08;;;;;;;;;6.75;6.00;;;;;22.85;40.32;101675.56;5056309;28;45614;-48
2021/08/25 02:42:33;;;;;;;;;6.75;6.25;;;;;22.85;40.44;101680.84;5055881;28;46769;-47
2021/08/25 02:44:59;;;;;;;;;10.50;7.00;;;;;22.84;40.20;101679.13;5057419;28;45339;-53
2021/08/25 02:47:24;;;;;;;;;8.25;6.75;;;;;22.85;40.36;101680.84;5059463;28;45289;-51
2021/08/25 02:49:50;;;;;;;;;5.00;4.00;;;;;22.85;40.45;101683.50;5059582;28;45270;-49
2021/08/25 02:52:15;;;;;;;;;6.00;5.00;;;;;22.85;40.28;101680.84;5059315;28;46645;-53
2021/08/25 02:54:40;;;;;;;;;7.00;5.25;;;;;22.84;40.46;101676.50;5059181;28;45178;-52
2021/08/25 02:57:06;;;;;;;;;5.00;5.00;;;;;22.85;40.52;101672.03;5059211;28;45287;-50
2021/08/25 02:59:31;;;;;;;;;8.50;6.00;;;;;22.85;40.52;101675.56;5059630;28;45490;-56
2021/08/25 03:01:56;;;;;;;;;6.00;5.25;;;;;22.84;40.32;101672.97;5059034;28;45667;-58
2021/08/25 03:04:22;;;;;;;;;8.00;6.00;;;;;22.83;40.53;101679.19;5059015;28;45290;-62
2021/08/25 03:06:47;;;;;;;;;6.50;5.75;;;;;22.82;40.31;101677.50;5059322;28;45379;-59
2021/08/25 03:09:12;;;;;;;;;6.25;5.50;;;;;22.82;40.56;101673.06;5041256;28;45287;-61
2021/08/25 03:11:38;;;;;;;;;6.00;6.00;;;;;22.81;40.50;101671.34;5058878;28;45351;-55
2021/08/25 03:14:03;;;;;;;;;6.50;6.00;;;;;22.81;40.71;101676.66;5058895;28;45254;-51
2021/08/25 03:16:29;;;;;;;;;8.25;6.25;;;;;22.80;40.65;101674.09;5059204;28;45240;-48
2021/08/25 03:18:54;;;;;;;;;8.00;5.75;;;;;22.81;40.70;101660.78;5059063;28;45549;-51
2021/08/25 03:21:19;;;;;;;;;6.25;6.25;;;;;22.80;40.55;101671.44;5058640;28;45371;-50
2021/08/25 03:23:45;;;;;;;;;7.75;7.50;;;;;22.79;40.71;101667.09;5058663;28;45415;-54
2021/08/25 03:26:10;;;;;;;;;7.75;6.25;;;;;22.78;40.56;101674.16;5058946;28;45345;-52
2021/08/25 03:28:36;;;;;;;;;5.25;5.25;;;;;22.78;40.67;101671.50;5058950;28;45326;-56
2021/08/25 03:31:01;;;;;;;;;6.00;4.50;;;;;22.79;40.67;101675.03;5058789;28;46307;-53
2021/08/25 03:33:26;;;;;;;;;7.00;5.25;;;;;22.78;40.65;101665.38;5058480;28;45462;-51
2021/08/25 03:35:52;;;;;;;;;5.75;5.75;;;;;22.76;40.53;101662.81;5058544;28;45434;-49
2021/08/25 03:38:17;;;;;;;;;6.50;5.75;;;;;22.76;40.64;101667.25;5058853;28;45589;-52
2021/08/25 03:40:42;;;;;;;;;6.75;6.75;;;;;22.76;40.90;101654.91;5058458;28;46447;-51
2021/08/25 03:43:08;;;;;;;;;7.75;7.75;;;;;22.75;40.89;101661.13;5058480;28;45399;-51
2021/08/25 03:45:33;;;;;;;;;7.00;7.00;;;;;22.74;40.80;101659.41;5058879;28;45228;-49
2021/08/25 03:47:59;;;;;;;;;5.25;5.25;;;;;22.74;40.65;101663.81;5058803;28;45310;-48
2021/08/25 03:50:24;;;;;;;;;7.50;6.00;;;;;22.72;40.88;101663.91;5057735;28;45389;-58
2021/08/25 03:52:50;;;;;;;;;5.75;5.25;;;;;22.73;40.83;101665.63;5058431;28;45433;-56
2021/08/25 03:55:16;;;;;;;;;8.00;7.00;;;;;22.73;40.87;101667.38;5058004;28;45268;-49
2021/08/25 03:57:41;;;;;;;;;6.50;6.50;;;;;22.73;41.03;101664.75;5058442;28;45175;-55
2021/08/25 04:00:07;;;;;;;;;6.00;6.00;;;;;22.73;40.88;101662.97;5057816;28;46450;-51
2021/08/25 04:02:32;;;;;;;;;8.75;6.25;;;;;22.73;40.68;101662.09;5058530;28;45497;-49
2021/08/25 04:04:58;;;;;;;;;6.00;6.00;;;;;22.72;40.95;101661.25;5058237;28;45254;-53
2021/08/25 04:07:23;;;;;;;;;6.25;5.75;;;;;22.70;40.99;101652.56;5058324;28;45521;-50
2021/08/25 04:09:49;;;;;;;;;5.75;5.25;;;;;22.69;40.83;101654.34;5058068;28;46240;-54
2021/08/25 04:12:15;;;;;;;;;5.75;5.25;;;;;22.69;40.97;101657.00;5057934;28;45515;-53
2021/08/25 04:14:40;;;;;;;;;8.00;6.00;;;;;22.70;41.25;101657.84;5058244;28;45425;-50
2021/08/25 04:17:05;;;;;;;;;8.75;8.00;;;;;22.69;40.98;101657.00;5058393;28;45549;-49
2021/08/25 04:19:31;;;;;;;;;6.75;6.75;;;;;22.70;40.85;101653.44;5058072;28;46654;-49
2021/08/25 04:21:56;;;;;;;;;6.25;5.00;;;;;22.68;41.10;101647.38;5058003;28;45407;-55
2021/08/25 04:24:21;;;;;;;;;7.00;5.75;;;;;22.67;40.88;101647.41;5057772;28;45399;-51
2021/08/25 04:26:47;;;;;;;;;8.25;7.00;;;;;22.67;41.05;101648.28;5057935;28;45576;-54
2021/08/25 04:29:12;;;;;;;;;7.25;6.00;;;;;22.66;40.99;101654.50;5057756;28;46758;-62
2021/08/25 04:31:38;;;;;;;;;6.00;6.00;;;;;22.65;41.19;101650.16;5057720;28;45411;-54
2021/08/25 04:34:03;;;;;;;;;6.50;6.50;;;;;22.63;40.86;101649.38;5057943;28;45482;-59
2021/08/25 04:36:28;;;;;;;;;6.00;5.25;;;;;22.65;41.09;101657.25;5057871;28;45626;-54
2021/08/25 04:38:53;;;;;;;;;6.00;6.00;;;;;22.64;41.37;101644.97;5057563;28;46310;-55
2021/08/25 04:41:19;;;;;;;;;7.75;7.00;;;;;22.64;41.33;101651.09;5057347;28;48160;-50
2021/08/25 04:43:44;;;;;;;;;4.50;4.50;;;;;22.64;41.14;101655.53;5057503;28;45288;-51
2021/08/25 04:46:15;;;;;;;;;6.25;6.00;;;;;22.62;41.08;101649.47;5057764;28;45310;-59
2021/08/25 04:48:40;;;;;;;;;8.00;6.00;;;;;22.63;41.61;101656.47;5057465;28;45533;-62
2021/08/25 04:51:06;;;;;;;;;7.25;6.00;;;;;22.62;41.21;101660.03;5057429;28;49706;-55
2021/08/25 04:53:31;;;;;;;;;8.50;6.75;;;;;22.61;41.28;101653.88;5057345;28;45341;-54
2021/08/25 04:55:56;;;;;;;;;5.00;5.00;;;;;22.62;41.42;101660.03;5056402;28;45619;-56
2021/08/25 04:58:22;;;;;;;;;7.00;5.75;;;;;22.60;41.27;101652.16;5056946;28;48128;-56
2021/08/25 05:00:48;;;;;;;;;6.50;5.75;;;;;22.60;40.91;101652.16;5057189;28;45410;-58
2021/08/25 05:03:14;;;;;;;;;4.00;4.00;;;;;22.61;41.36;101645.94;5057383;28;45284;-58
2021/08/25 05:05:39;;;;;;;;;8.50;7.00;;;;;22.61;41.47;101651.22;5056270;28;45479;-53
2021/08/25 05:08:05;;;;;;;;;10.50;6.50;;;;;22.59;41.55;101649.63;5056396;28;46934;-51
2021/08/25 05:10:30;;;;;;;;;6.75;6.75;;;;;22.61;41.32;101658.31;5057203;28;45248;-51
2021/08/25 05:12:56;;;;;;;;;6.75;6.50;;;;;22.61;41.43;101653.03;5057161;28;45246;-57
2021/08/25 05:15:21;;;;;;;;;6.50;5.50;;;;;22.60;41.33;101651.31;5057284;28;45328;-54
2021/08/25 05:17:46;;;;;;;;;5.50;5.00;;;;;22.60;41.50;101653.97;5056679;28;46624;-53
2021/08/25 05:20:12;;;;;;;;;7.75;7.75;;;;;22.60;41.42;101651.31;5056880;28;45276;-49
2021/08/25 05:22:38;;;;;;;;;7.50;7.50;;;;;22.59;41.37;101652.25;5057268;28;45343;-53
2021/08/25 05:25:03;;;;;;;;;9.00;8.00;;;;;22.60;41.28;101652.16;5057071;28;45391;-51
2021/08/25 05:27:29;;;;;;;;;6.50;6.50;;;;;22.60;41.41;101652.16;5056769;28;46420;-51
2021/08/25 05:29:55;;;;;;;;;6.50;6.00;;;;;22.60;41.38;101651.31;5056876;28;45305;-47
2021/08/25 05:32:20;;;;;;;;;9.00;7.50;;;;;22.61;41.52;101658.31;5056710;28;45422;-57
2021/08/25 05:34:45;;;;;;;;;7.50;6.25;;;;;22.61;41.50;101653.03;5056905;28;45648;-47
2021/08/25 05:37:11;;;;;;;;;8.25;8.25;;;;;22.60;41.47;101654.81;5056445;28;46148;-53
2021/08/25 05:39:36;;;;;;;;;6.75;6.00;;;;;22.62;41.41;101657.38;5057059;28;45429;-51
2021/08/25 05:42:02;;;;;;;;;7.00;5.25;;;;;22.62;41.23;101662.66;5056751;28;45365;-51
2021/08/25 05:44:27;;;;;;;;;8.50;7.25;;;;;22.61;41.29;101672.38;5056799;28;45406;-55
2021/08/25 05:46:52;;;;;;;;;8.50;7.25;;;;;22.61;41.35;101664.44;5056348;28;45411;-49
2021/08/25 05:49:18;;;;;;;;;8.75;6.75;;;;;22.61;41.36;101653.88;5056427;28;45320;-57
2021/08/25 05:51:43;;;;;;;;;5.50;5.50;;;;;22.61;41.33;101656.50;5056668;28;45438;-54
2021/08/25 05:54:13;;;;;;;;;7.00;7.00;;;;;22.62;41.32;101660.03;5057043;28;45472;-54
2021/08/25 05:56:40;;;;;;;;;6.75;6.75;;;;;22.62;41.27;101673.25;5056522;28;45395;-56
2021/08/25 05:59:05;;;;;;;;;7.50;6.25;;;;;22.60;41.31;101661.88;5056266;28;45673;-52
2021/08/25 06:01:30;;;;;;;;;8.00;6.75;;;;;22.62;41.30;101665.31;5056429;28;45304;-52
2021/08/25 06:03:56;;;;;;;;;6.75;6.50;;;;;22.63;41.42;101669.66;5056582;28;45650;-49
2021/08/25 06:06:21;;;;;;;;;5.50;5.50;;;;;22.63;41.22;101683.72;5056424;28;46193;-54
2021/08/25 06:08:46;;;;;;;;;9.25;6.00;;;;;22.64;41.28;101674.03;5056210;28;45388;-52
2021/08/25 06:11:12;;;;;;;;;7.25;7.25;;;;;22.64;41.34;101685.44;5056307;28;45293;-54
2021/08/25 06:13:38;;;;;;;;;5.75;5.75;;;;;22.65;41.26;101675.75;5056983;28;45521;-57
2021/08/25 06:16:03;;;;;;;;;7.00;7.00;;;;;22.65;41.30;101670.44;5056183;28;45352;-61
2021/08/25 06:18:28;;;;;;;;;9.50;6.00;;;;;22.65;41.33;101679.22;5056892;28;45336;-58
2021/08/25 06:20:55;;;;;;;;;6.25;6.25;;;;;22.64;41.50;101681.94;5041740;28;45368;-60
2021/08/25 06:23:21;;;;;;;;;7.75;5.25;;;;;22.63;41.18;101677.59;5060019;28;45186;-60
2021/08/25 06:25:46;;;;;;;;;6.50;6.50;;;;;22.62;41.34;101676.72;5059651;28;46852;-59
2021/08/25 06:28:11;;;;;;;;;7.50;6.25;;;;;22.63;41.55;101683.72;5059901;28;45276;-56
2021/08/25 06:30:37;;;;;;;;;8.00;6.75;;;;;22.62;41.39;101682.00;5060026;28;45446;-57
2021/08/25 06:33:03;;;;;;;;;5.75;5.25;;;;;22.62;41.33;101666.16;5059799;28;45579;-59
2021/08/25 06:35:28;;;;;;;;;6.00;6.00;;;;;22.60;41.32;101673.31;5041515;28;47985;-62
2021/08/25 06:37:53;;;;;;;;;7.00;7.00;;;;;22.60;41.34;101678.59;5059447;28;45383;-57
2021/08/25 06:40:19;;;;;;;;;5.50;4.25;;;;;22.60;41.40;101672.47;5059594;28;45345;-60
2021/08/25 06:42:44;;;;;;;;;10.00;7.00;;;;;22.62;41.38;101673.25;5059686;28;45597;-58
2021/08/25 06:45:11;;;;;;;;;8.75;8.00;;;;;22.61;41.27;101682.94;5059554;28;45518;-55
2021/08/25 06:47:36;;;;;;;;;7.75;6.50;;;;;22.61;41.45;101668.88;5059121;28;45426;-59
2021/08/25 06:50:02;;;;;;;;;8.00;6.50;;;;;22.61;41.35;101682.09;5059411;28;45408;-58
2021/08/25 06:52:27;;;;;;;;;6.50;6.50;;;;;22.60;41.35;101685.66;5059474;28;45565;-50
2021/08/25 06:54:52;;;;;;;;;7.50;7.00;;;;;22.59;41.50;101683.97;5059165;28;45381;-56
2021/08/25 06:57:18;;;;;;;;;7.00;7.00;;;;;22.57;41.45;101680.53;5059086;28;45444;-52
2021/08/25 06:59:43;;;;;;;;;8.25;8.25;;;;;22.59;41.33;101686.59;5059354;28;45254;-47
2021/08/25 07:02:08;;;;;;;;;7.00;5.50;;;;;22.58;41.37;101679.59;5059866;28;45591;-54
2021/08/25 07:04:34;;;;;;;;;8.00;6.75;;;;;22.58;41.29;101685.75;5058938;28;46482;-58
2021/08/25 07:06:59;;;;;;;;;8.00;6.25;;;;;22.59;41.11;101699.81;5059136;28;45486;-60
2021/08/25 07:09:24;;;;;;;;;7.50;7.25;;;;;22.60;41.43;101696.25;5058637;28;45482;-55
2021/08/25 07:11:50;;;;;;;;;9.00;7.00;;;;;22.60;41.31;101693.59;5059335;28;45699;-57
2021/08/25 07:14:15;;;;;;;;;7.25;5.50;;;;;22.59;41.21;101691.88;5058803;28;45359;-58
2021/08/25 07:16:40;;;;;;;;;7.75;7.00;;;;;22.59;41.09;101690.13;5059090;28;45244;-53
2021/08/25 07:19:06;;;;;;;;;10.00;7.00;;;;;22.59;41.35;101681.31;5059018;28;45336;-62
2021/08/25 07:21:32;;;;;;;;;6.00;6.00;;;;;22.60;41.28;101677.75;5059233;28;45227;-63
2021/08/25 07:23:58;;;;;;;;;7.25;6.50;;;;;22.60;41.33;101673.31;5058759;28;45363;-62
2021/08/25 07:26:23;;;;;;;;;4.50;3.00;;;;;22.61;41.07;101679.47;5058933;28;45332;-63
2021/08/25 07:28:48;;;;;;;;;8.00;7.50;;;;;22.61;41.34;101677.66;5059134;28;45594;-64
2021/08/25 07:31:15;;;;;;;;;9.25;7.50;;;;;22.60;41.34;101664.53;5040384;28;45699;-61
2021/08/25 07:33:41;;;;;;;;;8.25;6.75;;;;;22.61;41.39;101674.19;5058921;28;45666;-65
2021/08/25 07:36:07;;;;;;;;;6.75;6.00;;;;;22.61;41.45;101679.47;5058660;28;45407;-65
2021/08/25 07:38:33;;;;;;;;;6.00;6.00;;;;;22.60;41.39;101668.00;5058710;28;45473;-62
2021/08/25 07:40:58;;;;;;;;;6.25;6.25;;;;;22.60;41.32;101662.72;5058754;28;45245;-62
2021/08/25 07:43:24;;;;;;;;;7.50;7.50;;;;;22.62;41.46;101665.31;5058231;28;45455;-61
2021/08/25 07:45:49;;;;;;;;;6.00;6.00;;;;;22.62;41.39;101665.31;5058216;28;45422;-63
2021/08/25 07:48:14;;;;;;;;;7.00;7.00;;;;;22.63;41.47;101667.03;5059009;28;45347;-60
2021/08/25 07:50:40;;;;;;;;;6.00;5.50;;;;;22.62;41.20;101663.50;5058605;28;45576;-61
2021/08/25 07:53:05;;;;;;;;;6.75;6.75;;;;;22.64;41.59;101661.66;5056944;28;48202;-57
2021/08/25 07:55:31;;;;;;;;;8.75;8.00;;;;;22.66;41.31;101661.56;5058303;28;45344;-61
2021/08/25 07:57:56;;;;;;;;;8.25;8.25;;;;;22.65;41.20;101654.59;5058362;28;45750;-55
2021/08/25 08:00:21;;;;;;;;;5.75;5.75;;;;;22.67;41.23;101652.72;5040020;28;45440;-57
2021/08/25 08:02:47;;;;;;;;;9.50;9.00;;;;;22.67;41.48;101640.38;5058141;28;46509;-52
2021/08/25 08:05:12;;;;;;;;;7.00;6.50;;;;;22.66;41.53;101645.72;5058653;28;45473;-58
2021/08/25 08:07:38;;;;;;;;;6.25;6.00;;;;;22.70;41.29;101644.63;5058184;28;45226;-64
2021/08/25 08:10:04;;;;;;;;;7.00;7.00;;;;;22.74;41.21;101645.31;5058334;28;45528;-58
2021/08/25 08:12:29;;;;;;;;;6.50;6.50;;;;;22.74;41.26;101647.97;5058028;28;45290;-56
2021/08/25 08:14:55;;;;;;;;;6.00;6.00;;;;;22.77;41.25;101643.38;5057927;28;45459;-57
2021/08/25 08:17:22;;;;;;;;;9.25;7.50;;;;;22.80;41.25;101643.22;5057911;28;45320;-58
2021/08/25 08:19:48;;;;;;;;;7.00;6.00;;;;;22.80;41.23;101645.84;5058451;28;45321;-52
2021/08/25 08:22:13;;;;;;;;;5.00;5.00;;;;;22.84;41.35;101643.91;5057937;28;45313;-59
2021/08/25 08:24:39;;;;;;;;;9.00;7.25;;;;;22.84;41.29;101643.91;5057996;28;45420;-60
2021/08/25 08:27:05;;;;;;;;;9.75;6.00;;;;;22.84;41.31;101644.78;5056645;28;45303;-64
2021/08/25 08:29:31;;;;;;;;;6.00;6.00;;;;;22.86;41.37;101642.03;5058107;28;45434;-64
2021/08/25 08:31:56;;;;;;;;;9.50;7.75;;;;;22.88;41.21;101639.31;5057598;28;45591;-53
2021/08/25 08:34:21;;;;;;;;;8.25;7.50;;;;;22.90;41.22;101642.72;5057605;28;45666;-60
2021/08/25 08:36:47;;;;;;;;;7.00;5.00;;;;;22.91;40.87;101645.31;5057985;28;45333;-61
2021/08/25 08:39:13;;;;;;;;;9.00;8.50;;;;;22.92;41.19;101635.56;5057820;28;45247;-64
2021/08/25 08:41:40;;;;;;;;;7.75;6.50;;;;;22.92;41.12;101636.44;5056802;28;45258;-63
2021/08/25 08:44:10;;;;;;;;;8.50;7.75;;;;;22.93;41.33;101637.28;5056792;28;45886;-63
2021/08/25 08:46:38;;;;;;;;;5.75;5.75;;;;;22.95;41.03;101635.41;5057865;28;45376;-60
2021/08/25 08:49:03;;;;;;;;;7.00;6.00;;;;;22.94;41.41;101639.00;5057730;28;45224;-64
2021/08/25 08:51:29;;;;;;;;;8.00;7.00;;;;;22.96;41.46;101635.31;5057347;28;46007;-59
2021/08/25 08:53:54;;;;;;;;;7.00;7.00;;;;;22.96;41.17;101634.50;5057465;28;45407;-58
2021/08/25 08:56:20;;;;;;;;;9.00;8.00;;;;;22.98;41.20;101629.97;5057269;28;45303;-60
2021/08/25 08:58:48;;;;;;;;;7.25;7.00;;;;;22.99;41.56;101626.38;5057696;28;45601;-58
2021/08/25 09:01:13;;;;;;;;;8.50;7.00;;;;;23.02;41.24;101642.06;5057051;28;46516;-61
2021/08/25 09:03:40;;;;;;;;;8.75;8.00;;;;;23.03;41.24;101633.22;5057097;28;45406;-59
2021/08/25 09:06:07;;;;;;;;;9.75;9.00;;;;;23.04;41.36;101634.94;5057198;28;45470;-65
2021/08/25 09:08:38;;;;;;;;;14.75;9.50;;;;;23.05;41.33;101635.75;5057268;28;45501;-56
2021/08/25 09:11:12;;;;;;;;;8.00;8.00;;;;;23.05;41.00;101634.00;5057038;28;46943;-61
2021/08/25 09:13:47;;;;;;;;;10.50;10.50;;;;;23.05;41.10;101628.69;5056933;28;45346;-61
2021/08/25 09:16:26;;;;;;;;;12.25;9.50;;;;;23.05;41.30;101636.63;5057061;28;45331;-59
2021/08/25 09:19:16;;;;;;;;;9.75;8.75;;;;;23.05;41.23;101628.69;5057293;28;45403;-57
2021/08/25 09:21:49;;;;;;;;;10.00;9.00;;;;;23.05;41.18;101623.41;5056808;28;47127;-57
2021/08/25 09:24:15;;;;;;;;;9.50;8.25;;;;;23.04;41.04;101640.22;5056860;28;45426;-59
2021/08/25 09:27:05;;;;;;;;;10.00;7.75;;;;;23.05;41.00;101627.84;5039135;28;45439;-59
2021/08/25 09:29:31;;;;;;;;;10.00;9.00;;;;;23.04;41.04;101624.34;5057110;28;45541;-55
2021/08/25 09:31:56;;;;;;;;;9.50;8.00;;;;;23.05;41.05;101625.19;5056633;28;46442;-60
2021/08/25 09:34:32;;;;;;;;;8.25;8.25;;;;;23.05;40.97;101619.91;5056613;28;45281;-60
2021/08/25 09:37:16;;;;;;;;;9.50;8.50;;;;;23.05;41.10;101619.91;5056897;28;45329;-59
2021/08/25 09:39:53;;;;;;;;;9.25;7.50;;;;;23.03;41.01;101620.00;5056913;28;45918;-60
2021/08/25 09:42:20;;;;;;;;;8.25;7.75;;;;;23.05;41.06;101615.47;5056890;28;45415;-60
2021/08/25 09:44:59;;;;;;;;;9.00;8.00;;;;;23.07;41.09;101629.47;5056534;28;45767;-60
2021/08/25 09:47:50;;;;;;;;;6.25;6.25;;;;;23.09;41.16;101621.47;5056770;28;45276;-61
2021/08/25 09:50:19;;;;;;;;;8.50;8.00;;;;;23.10;41.07;101616.06;5056878;28;45515;-61
2021/08/25 09:52:45;;;;;;;;;8.75;7.75;;;;;23.09;41.11;101617.03;5056268;28;46376;-60
2021/08/25 09:55:12;;;;;;;;;9.50;8.00;;;;;23.08;41.02;101610.03;5055949;28;45253;-60
2021/08/25 09:57:39;;;;;;;;;11.00;9.25;;;;;23.09;41.19;101606.47;5056512;28;45941;-61
2021/08/25 10:00:06;;;;;;;;;9.50;8.00;;;;;23.10;40.99;101609.94;5056726;28;45579;-61
2021/08/25 10:02:32;;;;;;;;;9.00;9.00;;;;;23.11;41.18;101609.84;5038140;28;47028;-61
2021/08/25 10:04:57;;;;;;;;;7.00;7.00;;;;;23.12;40.78;101606.28;5056270;28;45500;-60
2021/08/25 10:07:23;;;;;;;;;11.75;11.25;;;;;23.12;41.16;101600.16;5038539;28;45450;-58
2021/08/25 10:09:49;;;;;;;;;11.00;11.00;;;;;23.13;41.08;101605.34;5057062;28;45315;-59
2021/08/25 10:12:15;;;;;;;;;9.50;8.25;;;;;23.15;41.04;101597.34;5056229;28;45501;-59
2021/08/25 10:14:40;;;;;;;;;11.00;9.50;;;;;23.14;41.45;101598.28;5056250;28;45245;-58
2021/08/25 10:17:06;;;;;;;;;10.25;7.00;;;;;23.15;41.01;101595.53;5056386;28;45763;-58
2021/08/25 10:19:36;;;;;;;;;8.50;8.25;;;;;23.17;40.94;101592.78;5056463;28;45466;-59
2021/08/25 10:22:15;;;;;;;;;8.25;8.25;;;;;23.15;40.96;101590.25;5056035;28;45376;-61
2021/08/25 10:24:55;;;;;;;;;10.25;8.50;;;;;23.17;40.97;101583.09;5056112;28;45723;-58
2021/08/25 10:27:25;;;;;;;;;13.25;10.00;;;;;23.19;41.03;101579.50;5056590;28;45508;-58
2021/08/25 10:30:05;;;;;;;;;21.75;17.75;;;;;23.20;41.09;101573.31;5056641;28;45515;-58
2021/08/25 10:33:00;;;;;;;;;33.75;28.75;;;;;23.20;41.08;101579.44;5055931;28;46535;-56
2021/08/25 10:35:33;;;;;;;;;38.00;30.25;;;;;23.21;40.40;101572.34;5052608;28;45831;-57
2021/08/25 10:38:20;;;;;;;;;33.25;29.75;;;;;23.23;40.75;101581.94;5055795;28;45368;-56
2021/08/25 10:40:48;;;;;;;;;28.25;25.75;;;;;23.24;40.77;101572.19;5056004;28;45419;-57
2021/08/25 10:43:35;;;;;;;;;34.75;25.25;;;;;23.24;40.74;101569.56;5055849;28;45361;-59
2021/08/25 10:46:02;;;;;;;;;19.75;17.25;;;;;23.24;40.83;101569.56;5055746;28;45295;-58
2021/08/25 10:48:43;;;;;;;;;24.50;18.50;;;;;23.26;40.60;101565.88;5055988;28;45346;-57
2021/08/25 10:51:27;;;;;;;;;17.00;16.25;;;;;23.26;40.63;101565.88;5056072;28;45460;-60
2021/08/25 10:53:52;;;;;;;;;14.00;14.00;;;;;23.27;40.48;101562.28;5055816;28;46732;-58
2021/08/25 10:56:37;;;;;;;;;22.25;15.00;;;;;23.29;40.61;101564.88;5055655;28;45364;-59
2021/08/25 10:59:06;;;;;;;;;18.25;14.50;;;;;23.32;40.39;101562.03;5055608;28;45526;-60
2021/08/25 11:01:38;;;;;;;;;13.50;13.00;;;;;23.34;40.50;101568.09;5055958;28;45476;-57
2021/08/25 11:04:07;;;;;;;;;20.75;15.25;;;;;23.36;40.62;101553.00;5055450;28;46258;-58
2021/08/25 11:06:42;;;;;;;;;11.50;11.50;;;;;23.38;40.11;101548.47;5057699;28;45678;-57
2021/08/25 11:09:18;;;;;;;;;15.75;12.75;;;;;23.43;40.27;101541.13;5059042;28;45181;-56
2021/08/25 11:11:56;;;;;;;;;11.75;10.25;;;;;23.53;39.59;101543.28;5059220;28;45513;-56
2021/08/25 11:14:34;;;;;;;;;13.50;11.00;;;;;23.59;39.64;101548.19;5057950;28;46940;-55
2021/08/25 11:17:14;;;;;;;;;13.75;11.00;;;;;23.59;39.36;101543.75;5058693;28;45777;-55
2021/08/25 11:19:41;;;;;;;;;21.50;17.25;;;;;23.58;39.65;101541.19;5059232;28;45398;-54
2021/08/25 11:22:13;;;;;;;;;17.75;14.50;;;;;23.58;39.76;101533.25;5059284;28;45775;-50
2021/08/25 11:24:41;;;;;;;;;17.50;12.25;;;;;23.61;39.70;101541.03;5058638;28;46556;-43